createdAt,value
2022-08-21T00:00:24.153Z,60.01
2022-08-21T00:02:57.789Z,60.00
2022-08-21T00:05:25.850Z,59.85
2022-08-21T00:07:52.582Z,60.13
2022-08-21T00:10:19.525Z,60.11
2022-08-21T00:12:46.780Z,60.06
2022-08-21T00:15:18.224Z,60.17
2022-08-21T00:17:44.885Z,60.41
2022-08-21T00:20:14.010Z,60.32
2022-08-21T00:22:40.673Z,60.61
2022-08-21T00:25:08.258Z,60.66
2022-08-21T00:27:35.192Z,60.94
2022-08-21T00:30:02.136Z,61.05
2022-08-21T00:32:29.289Z,61.30
2022-08-21T00:34:55.930Z,61.46
2022-08-21T00:37:22.659Z,61.27
2022-08-21T00:39:50.655Z,61.50
2022-08-21T00:42:18.558Z,61.72
2022-08-21T00:44:49.091Z,61.65
2022-08-21T00:47:15.565Z,61.79
2022-08-21T00:49:42.339Z,61.73
2022-08-21T00:52:16.477Z,61.86
2022-08-21T00:54:45.424Z,62.36
2022-08-21T00:57:21.878Z,62.32
2022-08-21T00:59:54.529Z,62.63
2022-08-21T01:02:21.539Z,62.75
2022-08-21T01:04:49.076Z,62.91
2022-08-21T01:07:16.481Z,62.69
2022-08-21T01:09:43.173Z,62.98
2022-08-21T01:12:10.705Z,63.13
2022-08-21T01:14:37.447Z,63.07
2022-08-21T01:17:04.832Z,63.48
2022-08-21T01:19:32.025Z,63.45
2022-08-21T01:22:00.525Z,63.33
2022-08-21T01:24:27.367Z,63.46
2022-08-21T01:26:54.947Z,63.67
2022-08-21T01:29:40.446Z,63.67
2022-08-21T01:32:11.838Z,63.93
2022-08-21T01:34:42.980Z,63.98
2022-08-21T01:37:10.081Z,63.90
2022-08-21T01:39:38.156Z,64.24
2022-08-21T01:42:05.374Z,64.18
2022-08-21T01:44:32.449Z,63.92
2022-08-21T01:47:01.630Z,64.10
2022-08-21T01:49:28.599Z,64.15
2022-08-21T01:51:55.388Z,64.26
2022-08-21T01:54:22.176Z,64.46
2022-08-21T01:56:51.474Z,64.88
2022-08-21T01:59:17.941Z,64.74
2022-08-21T02:01:44.402Z,64.84
2022-08-21T02:04:11.463Z,64.99
2022-08-21T02:06:39.196Z,65.02
2022-08-21T02:09:07.669Z,64.89
2022-08-21T02:11:34.725Z,64.99
2022-08-21T02:14:01.386Z,65.17
2022-08-21T02:16:28.809Z,65.11
2022-08-21T02:18:59.757Z,65.25
2022-08-21T02:21:26.602Z,65.40
2022-08-21T02:23:53.002Z,65.36
2022-08-21T02:26:19.713Z,65.48
2022-08-21T02:28:46.279Z,65.73
2022-08-21T02:31:13.123Z,65.66
2022-08-21T02:33:40.248Z,65.39
2022-08-21T02:36:08.742Z,65.59
2022-08-21T02:38:39.172Z,65.49
2022-08-21T02:41:15.325Z,65.48
2022-08-21T02:43:42.610Z,65.52
2022-08-21T02:46:12.745Z,65.57
2022-08-21T02:48:39.582Z,65.92
2022-08-21T02:51:09.810Z,65.72
2022-08-21T02:53:36.617Z,65.63
2022-08-21T02:56:06.602Z,65.80
2022-08-21T02:58:37.850Z,65.71
2022-08-21T03:01:04.801Z,65.67
2022-08-21T03:03:31.590Z,65.77
2022-08-21T03:05:58.037Z,65.77
2022-08-21T03:08:27.469Z,65.58
2022-08-21T03:10:55.128Z,66.02
2022-08-21T03:13:21.954Z,66.05
2022-08-21T03:15:49.919Z,65.71
2022-08-21T03:18:17.186Z,65.81
2022-08-21T03:20:46.047Z,66.05
2022-08-21T03:23:14.978Z,66.07
2022-08-21T03:25:46.652Z,65.95
2022-08-21T03:28:16.740Z,65.98
2022-08-21T03:30:45.314Z,66.47
2022-08-21T03:33:15.281Z,66.46
2022-08-21T03:35:44.440Z,66.39
2022-08-21T03:38:11.138Z,66.27
2022-08-21T03:40:37.529Z,66.26
2022-08-21T03:43:03.952Z,66.69
2022-08-21T03:45:30.411Z,66.40
2022-08-21T03:48:02.979Z,66.42
2022-08-21T03:50:34.739Z,66.13
2022-08-21T03:53:01.533Z,66.20
2022-08-21T03:55:28.517Z,66.28
2022-08-21T03:57:54.949Z,66.69
2022-08-21T04:00:21.765Z,66.68
2022-08-21T04:02:48.970Z,67.12
2022-08-21T04:05:28.030Z,66.94
2022-08-21T04:07:56.826Z,67.06
2022-08-21T04:10:25.374Z,67.52
2022-08-21T04:12:53.913Z,67.06
2022-08-21T04:15:21.121Z,67.19
2022-08-21T04:17:47.896Z,66.89
2022-08-21T04:20:14.459Z,67.16
2022-08-21T04:22:40.884Z,66.94
2022-08-21T04:25:08.278Z,67.20
2022-08-21T04:27:35.732Z,67.16
2022-08-21T04:30:02.209Z,67.39
2022-08-21T04:32:28.887Z,67.25
2022-08-21T04:35:04.915Z,67.46
2022-08-21T04:37:31.981Z,67.53
2022-08-21T04:39:59.263Z,67.46
2022-08-21T04:42:26.798Z,67.02
2022-08-21T04:44:53.429Z,67.18
2022-08-21T04:47:19.925Z,67.35
2022-08-21T04:49:46.733Z,66.94
2022-08-21T04:52:16.740Z,67.50
2022-08-21T04:54:46.341Z,67.03
2022-08-21T04:57:16.255Z,67.18
2022-08-21T04:59:48.158Z,67.10
2022-08-21T05:02:14.815Z,66.91
2022-08-21T05:04:54.334Z,67.01
2022-08-21T05:07:41.734Z,67.11
2022-08-21T05:10:09.712Z,67.05
2022-08-21T05:12:36.656Z,67.13
2022-08-21T05:15:04.621Z,66.91
2022-08-21T05:17:31.067Z,67.05
2022-08-21T05:19:57.502Z,67.03
2022-08-21T05:22:25.183Z,66.87
2022-08-21T05:24:52.219Z,66.87
2022-08-21T05:27:18.646Z,67.10
2022-08-21T05:29:46.560Z,66.88
2022-08-21T05:32:14.175Z,67.16
2022-08-21T05:34:42.398Z,67.17
2022-08-21T05:37:12.129Z,67.18
2022-08-21T05:40:05.103Z,67.20
2022-08-21T05:42:24.950Z,67.18
2022-08-21T05:44:51.349Z,67.50
2022-08-21T05:47:18.864Z,67.29
2022-08-21T05:49:45.413Z,67.39
2022-08-21T05:52:11.825Z,67.12
2022-08-21T05:54:38.539Z,67.39
2022-08-21T05:57:05.177Z,67.60
2022-08-21T05:59:31.646Z,67.82
2022-08-21T06:02:01.165Z,67.82
2022-08-21T06:04:30.562Z,67.80
2022-08-21T06:06:57.012Z,68.05
2022-08-21T06:09:23.414Z,67.57
2022-08-21T06:11:49.845Z,67.77
2022-08-21T06:14:16.762Z,67.62
2022-08-21T06:16:43.438Z,67.81
2022-08-21T06:19:09.872Z,67.81
2022-08-21T06:21:36.331Z,68.00
2022-08-21T06:24:02.893Z,68.25
2022-08-21T06:26:30.077Z,68.62
2022-08-21T06:28:56.522Z,68.71
2022-08-21T06:31:25.546Z,68.81
2022-08-21T06:33:53.097Z,68.63
2022-08-21T06:36:21.710Z,69.26
2022-08-21T06:38:51.584Z,69.32
2022-08-21T06:41:24.263Z,69.06
2022-08-21T06:43:54.526Z,69.22
2022-08-21T06:46:21.103Z,69.39
2022-08-21T06:48:47.891Z,69.38
2022-08-21T06:51:14.304Z,69.72
2022-08-21T06:53:40.730Z,69.68
2022-08-21T06:56:07.131Z,70.16
2022-08-21T06:58:33.522Z,70.41
2022-08-21T07:01:01.279Z,70.46
2022-08-21T07:03:33.984Z,70.06
2022-08-21T07:06:00.712Z,70.43
2022-08-21T07:08:28.633Z,70.11
2022-08-21T07:10:58.036Z,70.04
2022-08-21T07:13:24.629Z,70.47
2022-08-21T07:15:51.250Z,70.27
2022-08-21T07:18:17.976Z,70.35
2022-08-21T07:20:44.817Z,70.74
2022-08-21T07:23:17.081Z,70.35
2022-08-21T07:25:43.523Z,70.59
2022-08-21T07:28:09.901Z,70.27
2022-08-21T07:30:36.341Z,70.17
2022-08-21T07:33:02.770Z,70.30
2022-08-21T07:35:29.335Z,70.10
2022-08-21T07:37:55.823Z,69.85
2022-08-21T07:40:22.296Z,70.03
2022-08-21T07:42:52.338Z,70.04
2022-08-21T07:45:22.131Z,70.02
2022-08-21T07:47:52.961Z,69.94
2022-08-21T07:50:21.858Z,70.16
2022-08-21T07:52:48.769Z,70.16
2022-08-21T07:55:18.981Z,69.92
2022-08-21T07:57:45.468Z,69.79
2022-08-21T08:00:16.562Z,69.95
2022-08-21T08:02:47.565Z,70.07
2022-08-21T08:05:14.075Z,70.10
2022-08-21T08:07:40.571Z,70.35
2022-08-21T08:10:08.994Z,70.47
2022-08-21T08:12:36.711Z,70.17
2022-08-21T08:15:07.310Z,69.73
2022-08-21T08:17:33.743Z,69.72
2022-08-21T08:20:03.540Z,69.71
2022-08-21T08:22:29.966Z,69.63
2022-08-21T08:24:56.738Z,69.56
2022-08-21T08:27:23.341Z,69.54
2022-08-21T08:29:50.686Z,69.37
2022-08-21T08:32:17.070Z,69.33
2022-08-21T08:34:44.150Z,69.23
2022-08-21T08:37:11.898Z,69.02
2022-08-21T08:39:39.655Z,68.87
2022-08-21T08:42:32.092Z,68.83
2022-08-21T08:45:07.957Z,68.59
2022-08-21T08:47:39.033Z,68.38
2022-08-21T08:50:16.820Z,68.32
2022-08-21T08:52:50.975Z,68.07
2022-08-21T08:55:27.464Z,68.05
2022-08-21T08:57:55.363Z,68.15
2022-08-21T09:00:23.533Z,67.91
2022-08-21T09:02:55.209Z,67.98
2022-08-21T09:05:41.038Z,67.89
2022-08-21T09:08:24.995Z,67.64
2022-08-21T09:11:14.224Z,67.41
2022-08-21T09:14:13.189Z,67.10
2022-08-21T09:16:45.831Z,66.83
2022-08-21T09:19:33.542Z,66.49
2022-08-21T09:22:08.188Z,66.20
2022-08-21T09:25:08.799Z,66.10
2022-08-21T09:27:35.537Z,66.06
2022-08-21T09:30:06.459Z,66.14
2022-08-21T09:32:36.895Z,65.83
2022-08-21T09:35:20.597Z,65.84
2022-08-21T09:37:54.851Z,65.27
2022-08-21T09:40:27.586Z,64.39
2022-08-21T09:42:58.013Z,64.09
2022-08-21T09:45:24.621Z,63.60
2022-08-21T09:47:51.206Z,63.49
2022-08-21T09:50:27.566Z,63.47
2022-08-21T09:52:59.702Z,63.07
2022-08-21T09:55:57.909Z,63.03
2022-08-21T09:58:36.018Z,63.39
2022-08-21T10:01:05.635Z,63.15
2022-08-21T10:03:32.299Z,63.35
2022-08-21T10:06:06.117Z,63.38
2022-08-21T10:08:38.216Z,63.34
2022-08-21T10:11:14.007Z,62.56
2022-08-21T10:13:52.844Z,62.11
2022-08-21T10:16:39.675Z,62.01
2022-08-21T10:19:24.832Z,62.20
2022-08-21T10:22:11.272Z,61.74
2022-08-21T10:24:57.524Z,61.43
2022-08-21T10:27:40.797Z,60.98
2022-08-21T10:30:13.887Z,60.54
2022-08-21T10:33:27.863Z,59.96
2022-08-21T10:36:17.541Z,58.35
2022-08-21T10:39:17.487Z,57.92
2022-08-21T10:42:04.412Z,58.25
2022-08-21T10:44:40.123Z,57.82
2022-08-21T10:47:35.749Z,57.84
2022-08-21T10:50:12.966Z,57.50
2022-08-21T10:53:04.373Z,56.02
2022-08-21T10:55:44.492Z,56.51
2022-08-21T10:58:15.170Z,56.98
2022-08-21T11:00:54.380Z,55.96
2022-08-21T11:03:42.137Z,54.72
2022-08-21T11:06:28.149Z,54.45
2022-08-21T11:09:07.376Z,54.39
2022-08-21T11:12:10.890Z,54.48
2022-08-21T11:15:02.047Z,54.32
2022-08-21T11:17:48.197Z,54.10
2022-08-21T11:20:33.990Z,52.92
2022-08-21T11:23:20.249Z,53.42
2022-08-21T11:26:18.709Z,53.53
2022-08-21T11:29:08.004Z,53.20
2022-08-21T11:32:06.350Z,53.62
2022-08-21T11:34:59.118Z,53.54
2022-08-21T11:37:44.632Z,53.25
2022-08-21T11:40:17.297Z,53.17
2022-08-21T11:42:52.751Z,53.12
2022-08-21T11:45:31.545Z,53.08
2022-08-21T11:48:09.861Z,52.91
2022-08-21T11:50:38.938Z,52.81
2022-08-21T11:53:14.724Z,53.07
2022-08-21T11:55:49.524Z,52.96
2022-08-21T11:58:25.238Z,52.39
2022-08-21T12:00:56.792Z,51.64
2022-08-21T12:03:35.662Z,51.77
2022-08-21T12:06:14.566Z,51.14
2022-08-21T12:09:00.344Z,51.28
2022-08-21T12:11:30.956Z,51.23
2022-08-21T12:14:06.835Z,51.83
2022-08-21T12:16:40.233Z,51.16
2022-08-21T12:19:21.767Z,51.15
2022-08-21T12:21:55.647Z,51.41
2022-08-21T12:24:28.083Z,51.14
2022-08-21T12:27:00.205Z,51.11
2022-08-21T12:29:30.186Z,51.05
2022-08-21T12:32:00.151Z,51.30
2022-08-21T12:34:36.074Z,51.30
2022-08-21T12:37:14.743Z,51.17
2022-08-21T12:39:45.746Z,51.37
2022-08-21T12:42:18.170Z,51.39
2022-08-21T12:44:51.593Z,50.92
2022-08-21T12:47:24.256Z,50.36
2022-08-21T12:49:57.513Z,50.52
2022-08-21T12:52:39.121Z,51.12
2022-08-21T12:55:07.426Z,50.74
2022-08-21T12:57:38.102Z,51.04
2022-08-21T13:00:10.127Z,50.98
2022-08-21T13:02:43.625Z,50.58
2022-08-21T13:05:14.739Z,50.94
2022-08-21T13:07:46.724Z,50.89
2022-08-21T13:10:33.933Z,51.02
2022-08-21T13:13:12.971Z,50.58
2022-08-21T13:15:41.474Z,50.80
2022-08-21T13:18:26.532Z,50.89
2022-08-21T13:21:03.382Z,51.04
2022-08-21T13:23:31.362Z,51.32
2022-08-21T13:25:58.657Z,51.20
2022-08-21T13:28:34.549Z,51.03
2022-08-21T13:31:02.490Z,51.02
2022-08-21T13:33:35.139Z,51.28
2022-08-21T13:36:10.091Z,51.65
2022-08-21T13:38:38.596Z,51.57
2022-08-21T13:41:22.686Z,51.45
2022-08-21T13:44:20.698Z,51.28
2022-08-21T13:46:50.377Z,51.72
2022-08-21T13:49:31.173Z,51.83
2022-08-21T13:51:58.335Z,52.04
2022-08-21T13:54:29.790Z,51.74
2022-08-21T13:56:56.478Z,51.87
2022-08-21T13:59:41.468Z,51.92
2022-08-21T14:02:19.063Z,51.66
2022-08-21T14:04:53.566Z,51.59
2022-08-21T14:07:27.095Z,51.91
2022-08-21T14:09:54.758Z,51.96
2022-08-21T14:12:33.681Z,51.79
2022-08-21T14:15:05.851Z,51.92
2022-08-21T14:17:39.020Z,51.95
2022-08-21T14:20:08.032Z,51.80
2022-08-21T14:22:44.337Z,51.47
2022-08-21T14:25:15.768Z,51.12
2022-08-21T14:27:51.612Z,50.88
2022-08-21T14:30:30.768Z,50.82
2022-08-21T14:32:58.048Z,50.57
2022-08-21T14:35:24.878Z,51.16
2022-08-21T14:37:52.258Z,51.05
2022-08-21T14:40:20.774Z,51.08
2022-08-21T14:42:48.327Z,51.48
2022-08-21T14:45:18.336Z,50.89
2022-08-21T14:47:50.846Z,50.92
2022-08-21T14:50:17.423Z,50.88
2022-08-21T14:52:46.242Z,50.97
2022-08-21T14:55:17.510Z,50.82
2022-08-21T14:57:49.601Z,50.95
2022-08-21T15:00:18.739Z,51.54
2022-08-21T15:02:45.536Z,51.38
2022-08-21T15:05:12.404Z,51.60
2022-08-21T15:07:40.340Z,51.75
2022-08-21T15:10:08.032Z,51.76
2022-08-21T15:12:36.720Z,51.84
2022-08-21T15:15:05.247Z,52.07
2022-08-21T15:17:31.810Z,51.81
2022-08-21T15:19:58.285Z,51.98
2022-08-21T15:22:27.798Z,51.35
2022-08-21T15:24:54.580Z,51.54
2022-08-21T15:27:21.026Z,51.81
2022-08-21T15:29:47.562Z,51.36
2022-08-21T15:32:23.839Z,51.27
2022-08-21T15:34:52.442Z,50.72
2022-08-21T15:37:20.258Z,51.25
2022-08-21T15:39:52.274Z,51.69
2022-08-21T15:42:20.782Z,51.46
2022-08-21T15:44:48.158Z,51.63
2022-08-21T15:47:19.013Z,51.44
2022-08-21T15:49:46.322Z,51.55
2022-08-21T15:52:14.743Z,51.67
2022-08-21T15:54:41.825Z,51.57
2022-08-21T15:57:10.909Z,51.13
2022-08-21T15:59:44.122Z,51.30
2022-08-21T16:02:22.567Z,51.06
2022-08-21T16:04:48.988Z,51.32
2022-08-21T16:07:16.021Z,51.20
2022-08-21T16:09:42.404Z,51.35
2022-08-21T16:12:12.618Z,51.00
2022-08-21T16:14:39.229Z,50.96
2022-08-21T16:17:07.573Z,51.06
2022-08-21T16:19:36.625Z,50.89
2022-08-21T16:22:03.357Z,50.92
2022-08-21T16:24:29.760Z,50.98
2022-08-21T16:26:58.322Z,50.24
2022-08-21T16:29:33.260Z,50.54
2022-08-21T16:32:01.236Z,50.44
2022-08-21T16:34:28.538Z,50.66
2022-08-21T16:36:55.409Z,50.48
2022-08-21T16:39:21.913Z,50.07
2022-08-21T16:41:50.762Z,50.13
2022-08-21T16:44:17.590Z,50.33
2022-08-21T16:46:44.985Z,50.10
2022-08-21T16:49:11.445Z,49.56
2022-08-21T16:51:37.977Z,49.38
2022-08-21T16:54:05.052Z,49.73
2022-08-21T16:56:31.635Z,49.86
2022-08-21T16:58:59.065Z,49.72
2022-08-21T17:01:29.688Z,49.41
2022-08-21T17:03:56.339Z,50.03
2022-08-21T17:06:23.129Z,50.22
2022-08-21T17:08:56.045Z,50.05
2022-08-21T17:11:38.051Z,49.66
2022-08-21T17:14:12.152Z,49.81
2022-08-21T17:16:40.926Z,49.94
2022-08-21T17:19:08.249Z,49.82
2022-08-21T17:21:35.278Z,49.63
2022-08-21T17:24:01.719Z,50.03
2022-08-21T17:26:28.257Z,49.96
2022-08-21T17:28:55.090Z,49.67
2022-08-21T17:31:22.301Z,49.92
2022-08-21T17:33:52.787Z,49.85
2022-08-21T17:36:29.425Z,49.89
2022-08-21T17:38:57.182Z,50.00
2022-08-21T17:41:25.181Z,50.16
2022-08-21T17:43:54.449Z,50.23
2022-08-21T17:46:25.977Z,50.34
2022-08-21T17:48:52.724Z,50.12
2022-08-21T17:51:19.778Z,50.18
2022-08-21T17:53:46.438Z,50.22
2022-08-21T17:56:14.887Z,50.18
2022-08-21T17:58:49.373Z,50.58
2022-08-21T18:01:17.038Z,50.61
2022-08-21T18:03:44.199Z,50.72
2022-08-21T18:06:14.341Z,51.00
2022-08-21T18:08:43.367Z,51.15
2022-08-21T18:11:10.372Z,51.22
2022-08-21T18:13:41.367Z,50.96
2022-08-21T18:16:08.348Z,51.08
2022-08-21T18:18:42.152Z,51.13
2022-08-21T18:21:10.122Z,51.42
2022-08-21T18:23:44.205Z,51.63
2022-08-21T18:26:14.428Z,51.92
2022-08-21T18:28:41.383Z,52.20
2022-08-21T18:31:10.660Z,52.04
2022-08-21T18:33:39.313Z,52.37
2022-08-21T18:36:10.085Z,52.29
2022-08-21T18:38:37.748Z,52.54
2022-08-21T18:41:10.119Z,52.46
2022-08-21T18:43:37.521Z,52.76
2022-08-21T18:46:04.313Z,52.96
2022-08-21T18:48:32.049Z,53.10
2022-08-21T18:50:59.348Z,53.32
2022-08-21T18:53:27.904Z,53.32
2022-08-21T18:55:57.927Z,53.61
2022-08-21T18:58:33.670Z,53.56
2022-08-21T19:01:00.153Z,53.97
2022-08-21T19:03:27.145Z,53.82
2022-08-21T19:05:54.475Z,54.08
2022-08-21T19:08:22.955Z,54.14
2022-08-21T19:10:51.990Z,54.42
2022-08-21T19:13:21.263Z,54.35
2022-08-21T19:15:52.591Z,54.56
2022-08-21T19:18:27.929Z,54.83
2022-08-21T19:20:55.853Z,54.74
2022-08-21T19:23:28.984Z,54.71
2022-08-21T19:26:00.875Z,55.00
2022-08-21T19:28:37.110Z,55.15
2022-08-21T19:31:10.306Z,55.02
2022-08-21T19:33:41.189Z,55.11
2022-08-21T19:36:12.565Z,55.01
2022-08-21T19:38:39.638Z,54.94
2022-08-21T19:41:09.277Z,55.06
2022-08-21T19:43:45.012Z,55.29
2022-08-21T19:46:12.762Z,55.38
2022-08-21T19:51:26.137Z,55.30
2022-08-21T19:53:57.045Z,55.38
2022-08-21T19:56:26.953Z,55.42
2022-08-21T19:58:53.710Z,55.31
2022-08-21T20:01:23.211Z,55.52
2022-08-21T20:03:53.678Z,55.41
2022-08-21T20:06:22.189Z,55.37
2022-08-21T20:08:51.425Z,55.49
2022-08-21T20:11:26.552Z,55.50
2022-08-21T20:13:54.414Z,55.73
2022-08-21T20:16:21.466Z,55.91
2022-08-21T20:18:48.870Z,56.19
2022-08-21T20:21:15.839Z,55.91
2022-08-21T20:23:48.770Z,56.13
2022-08-21T20:26:29.488Z,55.91
2022-08-21T20:28:56.134Z,56.68
2022-08-21T20:31:24.194Z,56.49
2022-08-21T20:33:51.882Z,56.53
2022-08-21T20:36:22.577Z,56.37
2022-08-21T20:38:51.761Z,56.52
2022-08-21T20:41:30.393Z,56.69
2022-08-21T20:43:58.955Z,56.84
2022-08-21T20:46:27.486Z,56.59
2022-08-21T20:48:53.992Z,56.61
2022-08-21T20:51:31.694Z,56.70
2022-08-21T20:54:25.598Z,56.86
2022-08-21T20:56:57.301Z,57.04
2022-08-21T20:59:33.148Z,57.02
2022-08-21T21:02:27.726Z,57.17
2022-08-21T21:05:06.290Z,57.39
2022-08-21T21:08:06.944Z,57.32
2022-08-21T21:10:44.865Z,57.40
2022-08-21T21:13:29.077Z,57.68
2022-08-21T21:16:07.450Z,57.44
2022-08-21T21:18:49.919Z,57.37
2022-08-21T21:21:33.361Z,57.91
2022-08-21T21:24:07.469Z,57.56
2022-08-21T21:26:44.615Z,57.77
2022-08-21T21:29:21.050Z,57.62
2022-08-21T21:31:49.308Z,57.60
2022-08-21T21:34:17.067Z,57.59
2022-08-21T21:37:04.900Z,57.50
2022-08-21T21:40:03.738Z,57.76
2022-08-21T21:43:03.430Z,57.81
2022-08-21T21:45:42.495Z,58.15
2022-08-21T21:48:27.694Z,58.06
2022-08-21T21:51:12.037Z,58.24
2022-08-21T21:54:04.809Z,58.45
2022-08-21T21:57:14.063Z,58.28
2022-08-21T22:00:05.281Z,58.38
2022-08-21T22:02:54.976Z,58.47
2022-08-21T22:05:49.382Z,58.67
2022-08-21T22:08:36.868Z,58.79
2022-08-21T22:11:38.148Z,58.72
2022-08-21T22:14:16.959Z,58.91
2022-08-21T22:16:50.525Z,58.94
2022-08-21T22:19:25.221Z,59.04
2022-08-21T22:22:17.378Z,59.08
2022-08-21T22:24:49.237Z,59.17
2022-08-21T22:27:21.874Z,59.16
2022-08-21T22:29:57.638Z,58.91
2022-08-21T22:32:28.971Z,58.80
2022-08-21T22:35:09.644Z,58.93
2022-08-21T22:37:39.768Z,58.58
2022-08-21T22:40:09.417Z,58.47
2022-08-21T22:42:37.446Z,58.57
2022-08-21T22:45:09.420Z,58.74
2022-08-21T22:47:41.477Z,58.78
2022-08-21T22:50:30.056Z,59.10
2022-08-21T22:53:02.512Z,59.18
2022-08-21T22:55:54.870Z,59.21
2022-08-21T22:58:26.562Z,59.09
2022-08-21T23:01:05.396Z,58.99
2022-08-21T23:03:45.394Z,59.02
2022-08-21T23:06:43.895Z,59.04
2022-08-21T23:09:28.034Z,58.97
2022-08-21T23:11:57.530Z,58.96
2022-08-21T23:14:24.851Z,58.97
2022-08-21T23:17:18.594Z,59.04
2022-08-21T23:19:58.243Z,59.15
2022-08-21T23:22:41.714Z,59.26
2022-08-21T23:25:26.697Z,59.30
2022-08-21T23:27:53.481Z,59.36
2022-08-21T23:30:39.959Z,59.82
2022-08-21T23:33:23.890Z,59.43
2022-08-21T23:36:26.207Z,59.38
2022-08-21T23:39:23.421Z,59.38
2022-08-21T23:42:10.818Z,59.37
2022-08-21T23:44:57.915Z,59.55
2022-08-21T23:47:43.342Z,59.66
2022-08-21T23:50:22.035Z,59.91
2022-08-21T23:53:10.075Z,60.22
2022-08-21T23:55:57.526Z,60.19
2022-08-21T23:58:43.010Z,60.42
